Terminal Aerodrome Forecast
Issued by NWS

Home | Current Version | Previous Version | Text Only | Print | Product List | Glossary On
Versions: 1 2 3 4 5 6 7 8 9 10 11 12
917
FTUS46 KSEW 162320
TAFBFI
TAF
KBFI 162320Z 1700/1724 16006KT P6SM BKN060 OVC120
     FM171200 16012KT P6SM -RA OVC040
     FM172200 18012G20KT P6SM -RA OVC025=

USA.gov is the U.S. government's official web portal to all federal, state and local government web resources and services.